createdAt,value
2022-12-18T00:01:29.197Z,3.28
2022-12-18T00:03:57.238Z,3.03
2022-12-18T00:06:25.763Z,2.50
2022-12-18T00:08:53.147Z,3.17
2022-12-18T00:11:22.561Z,4.05
2022-12-18T00:13:50.254Z,3.28
2022-12-18T00:16:22.786Z,4.63
2022-12-18T00:18:51.467Z,2.80
2022-12-18T00:21:18.746Z,6.53
2022-12-18T00:23:46.922Z,4.82
2022-12-18T00:26:19.825Z,2.72
2022-12-18T00:28:48.090Z,2.60
2022-12-18T00:31:22.847Z,2.65
2022-12-18T00:33:50.188Z,3.38
2022-12-18T00:36:23.426Z,3.00
2022-12-18T00:38:54.319Z,3.40
2022-12-18T00:41:40.254Z,2.97
2022-12-18T00:44:09.229Z,3.85
2022-12-18T00:46:36.204Z,3.42
2022-12-18T00:49:03.378Z,3.20
2022-12-18T00:51:30.275Z,5.38
2022-12-18T00:53:57.457Z,6.15
2022-12-18T00:56:25.421Z,2.85
2022-12-18T00:58:53.450Z,3.05
2022-12-18T01:01:20.910Z,6.13
2022-12-18T01:03:47.921Z,3.38
2022-12-18T01:06:17.700Z,4.35
2022-12-18T01:08:45.472Z,3.13
2022-12-18T01:11:16.368Z,3.40
2022-12-18T01:13:44.090Z,3.70
2022-12-18T01:16:16.860Z,3.22
2022-12-18T01:18:43.989Z,2.95
2022-12-18T01:21:14.775Z,4.18
2022-12-18T01:23:42.338Z,3.15
2022-12-18T01:26:16.853Z,2.53
2022-12-18T01:28:44.997Z,2.65
2022-12-18T01:31:24.083Z,3.97
2022-12-18T01:33:52.738Z,4.15
2022-12-18T01:36:26.077Z,3.83
2022-12-18T01:38:54.397Z,5.03
2022-12-18T01:41:28.006Z,5.07
2022-12-18T01:43:59.271Z,5.07
2022-12-18T01:46:27.862Z,3.10
2022-12-18T01:49:02.599Z,3.65
2022-12-18T01:51:31.879Z,3.35
2022-12-18T01:54:00.615Z,5.18
2022-12-18T01:56:27.754Z,2.95
2022-12-18T01:59:03.838Z,2.83
2022-12-18T02:01:32.117Z,3.25
2022-12-18T02:04:24.915Z,3.92
2022-12-18T02:07:05.393Z,3.58
2022-12-18T02:09:39.516Z,3.58
2022-12-18T02:12:18.727Z,3.45
2022-12-18T02:14:52.045Z,3.20
2022-12-18T02:17:30.441Z,2.08
2022-12-18T02:20:12.919Z,4.25
2022-12-18T02:22:56.493Z,3.30
2022-12-18T02:25:35.460Z,3.22
2022-12-18T02:28:07.539Z,2.33
2022-12-18T02:30:38.587Z,2.50
2022-12-18T02:33:09.209Z,2.85
2022-12-18T02:35:38.151Z,3.38
2022-12-18T02:38:06.152Z,2.55
2022-12-18T02:40:37.168Z,4.95
2022-12-18T02:43:09.815Z,3.40
2022-12-18T02:45:47.668Z,3.67
2022-12-18T02:48:16.154Z,3.30
2022-12-18T02:51:07.648Z,3.28
2022-12-18T02:53:45.049Z,4.03
2022-12-18T02:56:18.086Z,4.47
2022-12-18T02:59:03.142Z,3.90
2022-12-18T03:02:10.083Z,3.40
2022-12-18T03:04:53.649Z,2.78
2022-12-18T03:07:34.140Z,3.65
2022-12-18T03:10:02.229Z,5.47
2022-12-18T03:12:33.761Z,5.05
2022-12-18T03:15:04.229Z,4.97
2022-12-18T03:17:34.112Z,4.78
2022-12-18T03:20:11.350Z,3.70
2022-12-18T03:22:39.768Z,4.07
2022-12-18T03:25:10.612Z,5.30
2022-12-18T03:27:44.895Z,3.50
2022-12-18T03:30:15.018Z,8.25
2022-12-18T03:33:08.816Z,3.42
2022-12-18T03:35:43.004Z,3.65
2022-12-18T03:38:12.095Z,3.70
2022-12-18T03:40:54.932Z,2.92
2022-12-18T03:43:51.397Z,2.60
2022-12-18T03:46:31.354Z,2.97
2022-12-18T03:49:11.101Z,2.72
2022-12-18T03:51:45.907Z,2.90
2022-12-18T03:54:14.219Z,2.83
2022-12-18T03:56:56.027Z,3.35
2022-12-18T03:59:26.371Z,5.20
2022-12-18T04:01:56.687Z,2.60
2022-12-18T04:04:27.009Z,3.42
2022-12-18T04:06:54.772Z,3.70
2022-12-18T04:09:22.982Z,3.00
2022-12-18T04:11:52.917Z,3.58
2022-12-18T04:14:21.222Z,3.00
2022-12-18T04:16:52.291Z,7.75
2022-12-18T04:19:23.722Z,3.13
2022-12-18T04:21:52.594Z,5.95
2022-12-18T04:24:21.171Z,7.55
2022-12-18T04:27:00.454Z,5.65
2022-12-18T04:29:32.857Z,5.78
2022-12-18T04:32:00.001Z,3.92
2022-12-18T04:34:28.997Z,8.05
2022-12-18T04:36:56.548Z,5.40
2022-12-18T04:39:24.261Z,9.27
2022-12-18T04:41:55.891Z,6.72
2022-12-18T04:44:26.162Z,6.57
2022-12-18T04:46:53.098Z,9.07
2022-12-18T04:49:20.460Z,8.02
2022-12-18T04:51:47.271Z,10.82
2022-12-18T04:54:14.131Z,10.50
2022-12-18T04:56:41.069Z,11.23
2022-12-18T04:59:08.004Z,10.27
2022-12-18T05:01:35.386Z,11.75
2022-12-18T05:04:04.434Z,15.70
2022-12-18T05:06:31.329Z,11.32
2022-12-18T05:08:58.270Z,10.20
2022-12-18T05:11:25.176Z,8.77
2022-12-18T05:13:52.047Z,10.65
2022-12-18T05:16:19.039Z,8.38
2022-12-18T05:18:45.919Z,11.65
2022-12-18T05:21:13.077Z,13.68
2022-12-18T05:23:40.246Z,15.77
2022-12-18T05:26:08.960Z,12.90
2022-12-18T05:28:37.356Z,15.38
2022-12-18T05:31:05.701Z,18.17
2022-12-18T05:33:35.403Z,13.75
2022-12-18T05:36:03.821Z,16.58
2022-12-18T05:38:32.204Z,16.38
2022-12-18T05:40:59.512Z,18.35
2022-12-18T05:43:27.902Z,15.95
2022-12-18T05:45:55.316Z,20.92
2022-12-18T05:48:22.885Z,20.65
2022-12-18T05:50:51.725Z,18.27
2022-12-18T05:53:20.621Z,20.63
2022-12-18T05:55:48.703Z,16.73
2022-12-18T05:58:16.668Z,18.25
2022-12-18T06:00:46.700Z,20.85
2022-12-18T06:03:14.922Z,17.85
2022-12-18T06:05:45.145Z,18.27
2022-12-18T06:08:13.392Z,22.13
2022-12-18T06:10:40.509Z,21.90
2022-12-18T06:13:08.292Z,20.05
2022-12-18T06:15:37.947Z,19.92
2022-12-18T06:18:05.253Z,20.45
2022-12-18T06:20:33.834Z,24.02
2022-12-18T06:23:01.192Z,24.80
2022-12-18T06:25:28.147Z,27.02
2022-12-18T06:27:55.098Z,20.73
2022-12-18T06:30:22.113Z,27.10
2022-12-18T06:32:53.158Z,26.60
2022-12-18T06:35:23.644Z,30.13
2022-12-18T06:37:50.542Z,24.73
2022-12-18T06:40:17.808Z,22.60
2022-12-18T06:42:44.732Z,29.67
2022-12-18T06:45:12.667Z,26.83
2022-12-18T06:47:42.307Z,24.60
2022-12-18T06:50:10.914Z,23.67
2022-12-18T06:52:38.095Z,24.13
2022-12-18T06:55:05.503Z,22.05
2022-12-18T06:57:35.394Z,26.90
2022-12-18T07:00:02.356Z,26.88
2022-12-18T07:02:29.340Z,29.23
2022-12-18T07:04:56.255Z,29.27
2022-12-18T07:07:23.285Z,30.08
2022-12-18T07:09:53.591Z,26.13
2022-12-18T07:12:20.583Z,28.52
2022-12-18T07:14:47.495Z,29.98
2022-12-18T07:17:14.428Z,29.60
2022-12-18T07:19:41.558Z,27.65
2022-12-18T07:22:08.459Z,28.27
2022-12-18T07:24:35.992Z,32.92
2022-12-18T07:27:03.489Z,32.60
2022-12-18T07:29:31.137Z,27.70
2022-12-18T07:31:58.502Z,37.25
2022-12-18T07:34:25.540Z,32.22
2022-12-18T07:36:52.516Z,37.60
2022-12-18T07:39:19.431Z,33.75
2022-12-18T07:42:09.360Z,32.72
2022-12-18T07:44:36.598Z,29.35
2022-12-18T07:47:06.632Z,31.83
2022-12-18T07:49:37.609Z,30.38
2022-12-18T07:52:04.599Z,31.73
2022-12-18T07:54:31.625Z,32.35
2022-12-18T07:56:58.566Z,36.85
2022-12-18T07:59:25.552Z,31.20
2022-12-18T08:01:52.565Z,34.65
2022-12-18T08:04:19.672Z,30.58
2022-12-18T08:06:48.231Z,33.85
2022-12-18T08:09:15.459Z,37.13
2022-12-18T08:11:42.414Z,32.60
2022-12-18T08:14:09.699Z,37.20
2022-12-18T08:16:36.909Z,35.17
2022-12-18T08:19:03.966Z,36.45
2022-12-18T08:21:32.503Z,34.33
2022-12-18T08:24:01.650Z,32.92
2022-12-18T08:26:31.051Z,36.20
2022-12-18T08:29:00.488Z,37.92
2022-12-18T08:31:29.404Z,39.17
2022-12-18T08:33:57.090Z,33.08
2022-12-18T08:36:24.960Z,36.60
2022-12-18T08:38:53.223Z,41.50
2022-12-18T08:41:21.649Z,33.38
2022-12-18T08:44:07.173Z,29.65
2022-12-18T08:46:40.237Z,32.95
2022-12-18T08:49:08.532Z,37.67
2022-12-18T08:51:36.964Z,38.50
2022-12-18T08:54:04.733Z,37.92
2022-12-18T08:56:34.421Z,38.22
2022-12-18T08:59:01.585Z,39.10
2022-12-18T09:01:29.491Z,40.80
2022-12-18T09:03:56.609Z,40.28
2022-12-18T09:06:24.594Z,40.53
2022-12-18T09:08:51.604Z,42.63
2022-12-18T09:11:27.481Z,43.33
2022-12-18T09:13:56.605Z,51.13
2022-12-18T09:16:28.778Z,39.67
2022-12-18T09:19:02.527Z,44.00
2022-12-18T09:21:32.704Z,36.75
2022-12-18T09:24:07.305Z,38.83
2022-12-18T09:26:36.360Z,39.15
2022-12-18T09:29:04.129Z,39.90
2022-12-18T09:31:31.195Z,37.20
2022-12-18T09:33:58.071Z,40.88
2022-12-18T09:36:24.978Z,41.88
2022-12-18T09:38:52.088Z,40.40
2022-12-18T09:41:43.655Z,45.70
2022-12-18T09:44:35.989Z,38.80
2022-12-18T09:47:07.594Z,42.58
2022-12-18T09:49:41.670Z,34.55
2022-12-18T09:52:23.544Z,39.83
2022-12-18T09:55:16.808Z,44.60
2022-12-18T09:57:52.549Z,44.90
2022-12-18T10:00:22.460Z,40.53
2022-12-18T10:02:58.853Z,38.58
2022-12-18T10:05:43.993Z,42.83
2022-12-18T10:08:39.563Z,37.63
2022-12-18T10:11:32.451Z,39.58
2022-12-18T10:14:25.223Z,36.70
2022-12-18T10:17:04.685Z,41.88
2022-12-18T10:19:51.051Z,39.95
2022-12-18T10:22:27.378Z,39.53
2022-12-18T10:25:17.447Z,35.83
2022-12-18T10:27:44.655Z,35.25
2022-12-18T10:30:22.056Z,37.75
2022-12-18T10:32:49.369Z,35.15
2022-12-18T10:35:25.765Z,44.42
2022-12-18T10:38:07.674Z,40.70
2022-12-18T10:40:56.581Z,36.33
2022-12-18T10:43:27.342Z,37.03
2022-12-18T10:46:09.441Z,37.05
2022-12-18T10:48:51.652Z,36.90
2022-12-18T10:51:27.801Z,39.10
2022-12-18T10:54:01.973Z,37.85
2022-12-18T10:56:33.489Z,39.72
2022-12-18T10:59:05.094Z,37.67
2022-12-18T11:01:55.116Z,36.22
2022-12-18T11:04:24.302Z,44.05
2022-12-18T11:07:05.019Z,43.97
2022-12-18T11:09:34.418Z,38.35
2022-12-18T11:12:18.924Z,37.80
2022-12-18T11:14:50.049Z,40.97
2022-12-18T11:17:27.031Z,43.33
2022-12-18T11:20:34.742Z,45.20
2022-12-18T11:23:05.068Z,44.45
2022-12-18T11:25:35.137Z,40.08
2022-12-18T11:28:02.813Z,40.33
2022-12-18T11:30:39.093Z,40.83
2022-12-18T11:33:20.559Z,40.28
2022-12-18T11:36:09.154Z,45.78
2022-12-18T11:38:39.279Z,43.90
2022-12-18T11:41:49.678Z,43.75
2022-12-18T11:44:29.449Z,47.25
2022-12-18T11:47:13.326Z,43.10
2022-12-18T11:49:42.628Z,52.00
2022-12-18T11:52:23.792Z,46.67
2022-12-18T11:54:56.731Z,47.35
2022-12-18T11:57:35.127Z,50.08
2022-12-18T12:00:19.128Z,45.63
2022-12-18T12:02:48.865Z,55.85
2022-12-18T12:05:24.164Z,51.08
2022-12-18T12:08:24.710Z,50.70
2022-12-18T12:11:06.658Z,48.00
2022-12-18T12:13:49.390Z,46.03
2022-12-18T12:16:30.110Z,45.42
2022-12-18T12:19:41.291Z,39.03
2022-12-18T12:22:19.723Z,44.97
2022-12-18T12:24:49.354Z,36.30
2022-12-18T12:27:19.500Z,41.13
2022-12-18T12:30:08.782Z,49.22
2022-12-18T12:32:37.228Z,54.10
2022-12-18T12:35:35.116Z,43.28
2022-12-18T12:38:19.785Z,43.63
2022-12-18T12:41:03.484Z,40.85
2022-12-18T12:46:35.664Z,36.65
2022-12-18T12:49:05.477Z,35.33
2022-12-18T12:51:37.914Z,47.75
2022-12-18T12:54:15.566Z,42.42
2022-12-18T12:56:56.053Z,39.70
2022-12-18T12:59:53.974Z,34.88
2022-12-18T13:02:31.968Z,29.00
2022-12-18T13:05:22.931Z,21.48
2022-12-18T13:07:59.276Z,15.82
2022-12-18T13:10:38.275Z,20.40
2022-12-18T13:13:08.996Z,17.77
2022-12-18T13:15:46.267Z,12.90
2022-12-18T13:18:23.637Z,11.80
2022-12-18T13:21:03.001Z,11.10
2022-12-18T13:23:40.788Z,10.02
2022-12-18T13:26:09.235Z,13.45
2022-12-18T13:28:48.400Z,11.38
2022-12-18T13:31:36.913Z,12.60
2022-12-18T13:34:27.546Z,12.27
2022-12-18T13:36:57.039Z,10.07
2022-12-18T13:39:30.322Z,10.15
2022-12-18T13:42:05.790Z,15.30
2022-12-18T13:44:40.017Z,11.95
2022-12-18T13:47:32.178Z,9.13
2022-12-18T13:49:59.801Z,12.85
2022-12-18T13:52:34.448Z,11.90
2022-12-18T13:55:05.585Z,11.55
2022-12-18T13:57:44.868Z,16.48
2022-12-18T14:00:20.963Z,10.75
2022-12-18T14:02:47.969Z,9.07
2022-12-18T14:05:45.490Z,9.38
2022-12-18T14:08:17.494Z,11.68
2022-12-18T14:10:49.195Z,11.00
2022-12-18T14:13:27.992Z,11.63
2022-12-18T14:15:55.248Z,16.67
2022-12-18T14:19:02.652Z,13.80
2022-12-18T14:21:48.138Z,15.50
2022-12-18T14:24:15.743Z,12.77
2022-12-18T14:26:47.423Z,10.73
2022-12-18T14:29:24.420Z,15.05
2022-12-18T14:32:16.836Z,11.95
2022-12-18T14:34:52.927Z,9.05
2022-12-18T14:37:26.389Z,11.00
2022-12-18T14:39:59.378Z,11.80
2022-12-18T14:42:29.215Z,8.85
2022-12-18T14:45:41.001Z,9.38
2022-12-18T14:48:15.439Z,11.23
2022-12-18T14:50:55.693Z,11.55
2022-12-18T14:53:27.401Z,14.18
2022-12-18T14:55:54.739Z,12.38
2022-12-18T14:58:23.528Z,14.55
2022-12-18T15:00:51.097Z,14.40
2022-12-18T15:03:22.525Z,13.38
2022-12-18T15:05:50.400Z,13.82
2022-12-18T15:08:37.517Z,12.88
2022-12-18T15:11:08.974Z,18.13
2022-12-18T15:13:39.123Z,15.88
2022-12-18T15:16:13.825Z,12.80
2022-12-18T15:18:44.176Z,13.53
2022-12-18T15:21:17.409Z,11.90
2022-12-18T15:23:52.688Z,16.17
2022-12-18T15:26:23.260Z,13.82
2022-12-18T15:28:52.900Z,13.45
2022-12-18T15:31:32.524Z,14.90
2022-12-18T15:34:00.664Z,16.55
2022-12-18T15:36:31.510Z,13.35
2022-12-18T15:39:05.408Z,15.75
2022-12-18T15:41:36.120Z,14.02
2022-12-18T15:44:04.540Z,13.73
2022-12-18T15:46:32.154Z,15.68
2022-12-18T15:49:02.495Z,15.13
2022-12-18T15:51:35.854Z,16.95
2022-12-18T15:54:06.385Z,13.95
2022-12-18T15:56:51.973Z,12.95
2022-12-18T15:59:21.428Z,13.20
2022-12-18T16:01:52.261Z,14.18
2022-12-18T16:04:21.715Z,13.20
2022-12-18T16:09:37.678Z,16.30
2022-12-18T16:12:05.701Z,14.25
2022-12-18T16:14:33.600Z,15.23
2022-12-18T16:17:06.378Z,16.00
2022-12-18T16:19:33.419Z,14.60
2022-12-18T16:22:00.670Z,11.25
2022-12-18T16:24:33.412Z,14.88
2022-12-18T16:27:01.732Z,15.35
2022-12-18T16:29:29.714Z,17.95
2022-12-18T16:32:01.229Z,14.30
2022-12-18T16:34:29.785Z,14.40
2022-12-18T16:37:06.160Z,15.88
2022-12-18T16:39:35.585Z,18.23
2022-12-18T16:42:05.754Z,18.48
2022-12-18T16:44:34.557Z,16.25
2022-12-18T16:47:03.355Z,16.55
2022-12-18T16:49:30.943Z,15.30
2022-12-18T16:51:57.999Z,13.38
2022-12-18T16:54:30.569Z,13.52
2022-12-18T16:56:58.242Z,12.52
2022-12-18T16:59:26.882Z,16.40
2022-12-18T17:01:55.796Z,12.45
2022-12-18T17:04:23.564Z,18.08
2022-12-18T17:06:51.961Z,14.20
2022-12-18T17:09:25.104Z,15.48
2022-12-18T17:11:53.669Z,15.25
2022-12-18T17:14:23.545Z,14.77
2022-12-18T17:17:07.419Z,14.75
2022-12-18T17:19:37.832Z,17.95
2022-12-18T17:22:05.132Z,19.92
2022-12-18T17:24:35.152Z,16.27
2022-12-18T17:27:03.414Z,19.10
2022-12-18T17:29:30.332Z,18.65
2022-12-18T17:31:57.657Z,17.05
2022-12-18T17:34:27.717Z,18.35
2022-12-18T17:36:55.402Z,19.85
2022-12-18T17:39:22.678Z,18.95
2022-12-18T17:41:50.053Z,22.55
2022-12-18T17:44:18.702Z,21.50
2022-12-18T17:46:46.744Z,16.48
2022-12-18T17:49:14.294Z,22.70
2022-12-18T17:51:43.187Z,16.60
2022-12-18T17:54:10.831Z,17.05
2022-12-18T17:56:38.885Z,17.35
2022-12-18T17:59:07.310Z,16.55
2022-12-18T18:01:36.377Z,18.60
2022-12-18T18:04:06.031Z,17.25
2022-12-18T18:06:33.964Z,20.58
2022-12-18T18:09:03.381Z,18.58
2022-12-18T18:11:49.060Z,18.85
2022-12-18T18:14:20.216Z,22.10
2022-12-18T18:16:50.931Z,23.15
2022-12-18T18:19:21.257Z,22.02
2022-12-18T18:21:50.942Z,19.02
2022-12-18T18:24:20.787Z,19.45
2022-12-18T18:26:48.125Z,21.25
2022-12-18T18:29:17.861Z,20.38
2022-12-18T18:31:45.491Z,23.95
2022-12-18T18:34:16.350Z,20.92
2022-12-18T18:36:43.623Z,21.40
2022-12-18T18:39:10.564Z,21.65
2022-12-18T18:41:37.876Z,23.33
2022-12-18T18:44:05.205Z,22.08
2022-12-18T18:46:32.083Z,28.17
2022-12-18T18:48:59.134Z,26.02
2022-12-18T18:51:31.447Z,21.02
2022-12-18T18:54:01.461Z,19.80
2022-12-18T18:59:15.443Z,21.90
2022-12-18T19:01:42.504Z,23.48
2022-12-18T19:04:09.886Z,19.50
2022-12-18T19:06:36.883Z,20.60
2022-12-18T19:09:05.150Z,20.70
2022-12-18T19:11:50.826Z,19.98
2022-12-18T19:14:18.013Z,21.80
2022-12-18T19:16:45.565Z,19.00
2022-12-18T19:19:13.761Z,22.60
2022-12-18T19:21:40.955Z,26.50
2022-12-18T19:24:09.543Z,25.40
2022-12-18T19:26:38.114Z,24.05
2022-12-18T19:29:11.056Z,24.20
2022-12-18T19:31:38.690Z,24.83
2022-12-18T19:34:07.294Z,24.20
2022-12-18T19:36:36.804Z,26.67
2022-12-18T19:39:15.870Z,27.45
2022-12-18T19:41:43.406Z,25.58
2022-12-18T19:44:17.912Z,25.42
2022-12-18T19:46:48.796Z,18.77
2022-12-18T19:49:18.100Z,21.73
2022-12-18T19:51:48.183Z,26.42
2022-12-18T19:54:17.856Z,23.13
2022-12-18T19:56:46.015Z,21.48
2022-12-18T19:59:13.555Z,26.98
2022-12-18T20:01:41.025Z,28.27
2022-12-18T20:04:08.412Z,24.95
2022-12-18T20:06:47.610Z,26.38
2022-12-18T20:09:15.162Z,26.23
2022-12-18T20:11:42.886Z,29.25
2022-12-18T20:14:11.212Z,27.63
2022-12-18T20:16:38.591Z,33.28
2022-12-18T20:19:06.512Z,28.13
2022-12-18T20:21:33.935Z,26.00
2022-12-18T20:24:02.242Z,26.42
2022-12-18T20:26:29.662Z,24.23
2022-12-18T20:28:56.897Z,26.25
2022-12-18T20:31:24.499Z,25.50
2022-12-18T20:33:52.246Z,22.20
2022-12-18T20:36:22.644Z,25.73
2022-12-18T20:38:57.298Z,27.10
2022-12-18T20:41:26.342Z,24.35
2022-12-18T20:43:58.617Z,28.88
2022-12-18T20:46:25.697Z,24.92
2022-12-18T20:48:52.754Z,21.67
2022-12-18T20:51:22.650Z,24.60
2022-12-18T20:53:49.708Z,27.85
2022-12-18T20:56:21.133Z,26.60
2022-12-18T20:58:49.891Z,25.05
2022-12-18T21:01:20.137Z,28.58
2022-12-18T21:03:48.283Z,28.77
2022-12-18T21:06:17.736Z,23.80
2022-12-18T21:08:45.037Z,31.73
2022-12-18T21:11:43.416Z,24.98
2022-12-18T21:14:16.429Z,27.13
2022-12-18T21:16:46.783Z,26.13
2022-12-18T21:19:18.772Z,25.13
2022-12-18T21:21:46.421Z,27.73
2022-12-18T21:24:13.670Z,23.25
2022-12-18T21:26:45.398Z,27.33
2022-12-18T21:29:21.537Z,31.05
2022-12-18T21:31:49.364Z,27.95
2022-12-18T21:34:28.166Z,26.00
2022-12-18T21:36:57.398Z,27.88
2022-12-18T21:39:25.714Z,26.55
2022-12-18T21:42:11.476Z,29.15
2022-12-18T21:44:41.901Z,31.48
2022-12-18T21:47:17.727Z,28.73
2022-12-18T21:49:49.559Z,30.35
2022-12-18T21:52:17.139Z,27.58
2022-12-18T21:54:43.991Z,23.02
2022-12-18T21:57:13.458Z,26.38
2022-12-18T21:59:43.535Z,33.70
2022-12-18T22:02:16.276Z,32.70
2022-12-18T22:04:44.498Z,29.33
2022-12-18T22:07:12.726Z,26.75
2022-12-18T22:09:39.885Z,25.17
2022-12-18T22:12:07.240Z,34.05
2022-12-18T22:14:34.130Z,24.20
2022-12-18T22:17:01.325Z,28.73
2022-12-18T22:19:29.389Z,29.25
2022-12-18T22:21:56.372Z,25.98
2022-12-18T22:24:25.962Z,34.25
2022-12-18T22:26:57.297Z,31.30
2022-12-18T22:29:47.874Z,29.35
2022-12-18T22:32:23.776Z,27.50
2022-12-18T22:35:09.210Z,29.13
2022-12-18T22:37:37.559Z,32.97
2022-12-18T22:40:07.409Z,27.67
2022-12-18T22:42:34.556Z,27.33
2022-12-18T22:45:01.458Z,30.08
2022-12-18T22:47:30.511Z,31.05
2022-12-18T22:49:58.460Z,31.45
2022-12-18T22:52:25.835Z,30.55
2022-12-18T22:54:54.405Z,31.23
2022-12-18T22:57:22.786Z,31.50
2022-12-18T22:59:50.968Z,35.53
2022-12-18T23:02:19.031Z,37.50
2022-12-18T23:04:47.722Z,31.55
2022-12-18T23:07:15.904Z,36.63
2022-12-18T23:09:42.962Z,34.90
2022-12-18T23:12:18.842Z,37.95
2022-12-18T23:14:47.403Z,36.63
2022-12-18T23:17:14.488Z,36.15
2022-12-18T23:19:47.163Z,37.15
2022-12-18T23:22:15.708Z,37.63
2022-12-18T23:24:42.588Z,38.00
2022-12-18T23:27:11.671Z,38.17
2022-12-18T23:29:39.907Z,35.42
2022-12-18T23:32:07.139Z,38.45
2022-12-18T23:34:34.000Z,46.53
2022-12-18T23:37:01.298Z,37.05
2022-12-18T23:39:29.485Z,38.58
2022-12-18T23:41:58.554Z,35.55
2022-12-18T23:44:26.021Z,37.67
2022-12-18T23:46:53.056Z,42.45
2022-12-18T23:49:20.208Z,38.42
2022-12-18T23:51:47.093Z,42.08
2022-12-18T23:54:13.945Z,46.03
2022-12-18T23:56:40.979Z,41.53
2022-12-18T23:59:07.911Z,43.55
